createdAt,value
2022-10-20T00:00:39.760Z,13.70
2022-10-20T00:03:09.285Z,12.90
2022-10-20T00:05:40.192Z,14.25
2022-10-20T00:08:09.562Z,12.82
2022-10-20T00:10:37.536Z,13.18
2022-10-20T00:13:05.630Z,11.13
2022-10-20T00:15:33.709Z,12.43
2022-10-20T00:18:01.667Z,11.93
2022-10-20T00:20:29.649Z,12.93
2022-10-20T00:22:57.629Z,11.43
2022-10-20T00:25:27.046Z,11.80
2022-10-20T00:27:54.996Z,11.57
2022-10-20T00:30:25.034Z,12.13
2022-10-20T00:32:53.828Z,10.75
2022-10-20T00:35:21.829Z,13.10
2022-10-20T00:37:49.812Z,12.52
2022-10-20T00:40:18.030Z,10.90
2022-10-20T00:42:47.923Z,11.23
2022-10-20T00:45:17.307Z,14.25
2022-10-20T00:47:48.801Z,15.35
2022-10-20T00:50:20.384Z,12.50
2022-10-20T00:52:49.748Z,15.43
2022-10-20T00:55:21.734Z,14.98
2022-10-20T00:57:53.233Z,13.88
2022-10-20T01:00:21.846Z,13.23
2022-10-20T01:02:51.506Z,13.85
2022-10-20T01:05:20.001Z,16.45
2022-10-20T01:07:48.020Z,14.57
2022-10-20T01:10:16.934Z,12.07
2022-10-20T01:12:52.912Z,13.13
2022-10-20T01:15:32.772Z,12.80
2022-10-20T01:18:13.570Z,15.13
2022-10-20T01:21:14.920Z,15.65
2022-10-20T01:23:56.682Z,13.80
2022-10-20T01:26:54.120Z,15.15
2022-10-20T01:29:28.643Z,14.38
2022-10-20T01:32:06.124Z,14.95
2022-10-20T01:34:40.961Z,14.68
2022-10-20T01:37:28.299Z,15.65
2022-10-20T01:40:13.309Z,15.27
2022-10-20T01:42:43.518Z,13.35
2022-10-20T01:45:16.144Z,14.07
2022-10-20T01:47:46.300Z,13.25
2022-10-20T01:50:16.863Z,18.98
2022-10-20T01:52:44.795Z,16.48
2022-10-20T01:55:14.846Z,13.95
2022-10-20T01:57:55.269Z,14.48
2022-10-20T02:00:25.265Z,16.08
2022-10-20T02:03:11.727Z,14.82
2022-10-20T02:05:54.061Z,14.55
2022-10-20T02:08:29.557Z,13.73
2022-10-20T02:11:00.319Z,14.15
2022-10-20T02:13:31.671Z,14.20
2022-10-20T02:16:05.895Z,13.55
2022-10-20T02:18:39.957Z,15.75
2022-10-20T02:21:08.688Z,15.45
2022-10-20T02:23:39.542Z,12.68
2022-10-20T02:26:09.764Z,14.38
2022-10-20T02:28:41.942Z,14.65
2022-10-20T02:31:12.130Z,13.40
2022-10-20T02:33:41.181Z,17.05
2022-10-20T02:36:16.769Z,14.80
2022-10-20T02:38:44.849Z,14.45
2022-10-20T02:41:12.839Z,14.32
2022-10-20T02:43:40.807Z,19.85
2022-10-20T02:46:08.893Z,15.77
2022-10-20T02:48:38.391Z,16.52
2022-10-20T02:51:07.450Z,14.32
2022-10-20T02:53:35.471Z,15.80
2022-10-20T02:56:03.370Z,13.57
2022-10-20T02:58:31.381Z,17.52
2022-10-20T03:00:59.413Z,17.58
2022-10-20T03:03:27.584Z,15.57
2022-10-20T03:05:57.004Z,13.65
2022-10-20T03:08:25.058Z,14.68
2022-10-20T03:10:53.017Z,16.65
2022-10-20T03:13:20.925Z,14.02
2022-10-20T03:15:48.946Z,15.20
2022-10-20T03:18:16.901Z,14.80
2022-10-20T03:20:45.029Z,14.77
2022-10-20T03:23:17.676Z,18.85
2022-10-20T03:25:48.032Z,15.25
2022-10-20T03:28:15.982Z,15.77
2022-10-20T03:30:46.438Z,14.82
2022-10-20T03:33:14.390Z,14.73
2022-10-20T03:35:42.287Z,16.50
2022-10-20T03:38:10.270Z,14.57
2022-10-20T03:40:39.593Z,16.48
2022-10-20T03:43:07.515Z,15.38
2022-10-20T03:45:35.563Z,16.30
2022-10-20T03:48:03.758Z,15.70
2022-10-20T03:50:31.735Z,15.00
2022-10-20T03:53:00.040Z,16.33
2022-10-20T03:55:27.967Z,15.13
2022-10-20T03:57:57.416Z,14.18
2022-10-20T04:00:25.420Z,16.02
2022-10-20T04:02:53.769Z,14.95
2022-10-20T04:05:22.392Z,17.52
2022-10-20T04:07:50.302Z,16.42
2022-10-20T04:10:18.850Z,17.92
2022-10-20T04:12:46.818Z,17.75
2022-10-20T04:15:18.477Z,19.70
2022-10-20T04:17:46.550Z,18.27
2022-10-20T04:20:14.500Z,18.23
2022-10-20T04:22:42.421Z,17.13
2022-10-20T04:25:12.097Z,24.70
2022-10-20T04:27:40.124Z,16.90
2022-10-20T04:30:09.433Z,17.60
2022-10-20T04:32:38.790Z,16.80
2022-10-20T04:35:07.593Z,16.67
2022-10-20T04:37:35.982Z,18.15
2022-10-20T04:40:04.858Z,16.17
2022-10-20T04:42:33.189Z,18.80
2022-10-20T04:45:01.138Z,16.97
2022-10-20T04:47:33.469Z,16.02
2022-10-20T04:50:03.002Z,16.73
2022-10-20T04:52:31.008Z,20.15
2022-10-20T04:54:58.992Z,21.00
2022-10-20T04:57:27.176Z,20.15
2022-10-20T04:59:55.153Z,20.20
2022-10-20T05:02:23.100Z,22.45
2022-10-20T05:04:50.967Z,17.77
2022-10-20T05:07:20.285Z,20.58
2022-10-20T05:09:49.428Z,20.48
2022-10-20T05:14:45.121Z,17.45
2022-10-20T05:17:13.051Z,17.65
2022-10-20T05:19:40.992Z,18.55
2022-10-20T05:22:08.908Z,17.92
2022-10-20T05:24:38.582Z,16.30
2022-10-20T05:27:06.532Z,20.00
2022-10-20T05:29:34.579Z,20.63
2022-10-20T05:32:02.594Z,23.00
2022-10-20T05:34:30.719Z,19.52
2022-10-20T05:36:58.693Z,22.52
2022-10-20T05:39:27.036Z,21.75
2022-10-20T05:41:56.380Z,18.75
2022-10-20T05:44:24.491Z,19.13
2022-10-20T05:46:52.389Z,15.98
2022-10-20T05:49:20.317Z,19.30
2022-10-20T05:51:48.792Z,17.65
2022-10-20T05:54:17.152Z,19.02
2022-10-20T05:56:45.482Z,16.07
2022-10-20T05:59:15.087Z,17.05
2022-10-20T06:01:49.038Z,15.82
2022-10-20T06:04:19.018Z,19.13
2022-10-20T06:06:49.003Z,20.13
2022-10-20T06:09:17.715Z,18.30
2022-10-20T06:11:45.637Z,19.00
2022-10-20T06:14:15.432Z,21.65
2022-10-20T06:16:43.400Z,20.20
2022-10-20T06:19:11.689Z,21.38
2022-10-20T06:21:39.726Z,20.60
2022-10-20T06:24:08.253Z,19.17
2022-10-20T06:26:37.481Z,18.75
2022-10-20T06:31:38.976Z,20.30
2022-10-20T06:34:08.418Z,17.83
2022-10-20T06:36:37.078Z,20.90
2022-10-20T06:39:07.547Z,18.55
2022-10-20T06:41:35.726Z,25.20
2022-10-20T06:44:03.998Z,19.80
2022-10-20T06:46:33.973Z,19.53
2022-10-20T06:49:03.892Z,23.15
2022-10-20T06:51:32.981Z,19.02
2022-10-20T06:54:01.911Z,20.58
2022-10-20T06:56:31.432Z,22.95
2022-10-20T06:59:00.492Z,16.20
2022-10-20T07:01:30.211Z,15.73
2022-10-20T07:04:00.292Z,16.95
2022-10-20T07:06:31.176Z,16.27
2022-10-20T07:09:00.096Z,18.02
2022-10-20T07:11:30.283Z,13.30
2022-10-20T07:14:00.081Z,14.38
2022-10-20T07:16:29.106Z,14.25
2022-10-20T07:18:57.932Z,12.38
2022-10-20T07:21:32.355Z,12.55
2022-10-20T07:24:09.761Z,13.00
2022-10-20T07:26:41.586Z,12.55
2022-10-20T07:29:10.643Z,12.55
2022-10-20T07:34:24.884Z,10.75
2022-10-20T07:36:55.247Z,9.65
2022-10-20T07:39:25.389Z,8.95
2022-10-20T07:41:56.347Z,14.20
2022-10-20T07:44:24.647Z,10.45
2022-10-20T07:46:52.632Z,9.07
2022-10-20T07:49:43.404Z,10.88
2022-10-20T07:52:10.700Z,9.15
2022-10-20T07:54:40.016Z,9.98
2022-10-20T07:57:10.509Z,9.02
2022-10-20T07:59:42.594Z,7.90
2022-10-20T08:02:13.595Z,9.55
2022-10-20T08:04:44.806Z,9.80
2022-10-20T08:07:16.591Z,9.50
2022-10-20T08:09:47.886Z,11.43
2022-10-20T08:12:15.923Z,8.88
2022-10-20T08:17:46.865Z,9.32
2022-10-20T08:22:47.361Z,8.77
2022-10-20T08:25:18.047Z,7.88
2022-10-20T08:27:51.262Z,8.80
2022-10-20T08:30:23.783Z,11.75
2022-10-20T08:32:52.715Z,7.90
2022-10-20T08:35:20.910Z,8.70
2022-10-20T08:37:48.988Z,8.20
2022-10-20T08:40:21.485Z,13.45
2022-10-20T08:42:50.233Z,7.38
2022-10-20T08:45:21.418Z,8.20
2022-10-20T08:47:51.869Z,9.32
2022-10-20T08:50:21.911Z,8.32
2022-10-20T08:52:54.231Z,8.82
2022-10-20T08:55:29.299Z,7.80
2022-10-20T08:58:01.487Z,7.97
2022-10-20T09:00:31.535Z,8.75
2022-10-20T09:03:11.737Z,8.68
2022-10-20T09:05:43.749Z,6.88
2022-10-20T09:08:11.815Z,7.50
2022-10-20T09:10:46.597Z,8.48
2022-10-20T09:13:21.378Z,7.57
2022-10-20T09:15:50.153Z,7.97
2022-10-20T09:20:51.137Z,8.65
2022-10-20T09:23:40.000Z,6.95
2022-10-20T09:26:30.435Z,7.35
2022-10-20T09:29:15.393Z,7.43
2022-10-20T09:31:45.665Z,8.05
2022-10-20T09:34:25.001Z,8.60
2022-10-20T09:36:57.193Z,9.13
2022-10-20T09:39:28.904Z,8.45
2022-10-20T09:42:05.813Z,9.43
2022-10-20T09:44:38.336Z,8.55
2022-10-20T09:47:06.316Z,10.52
2022-10-20T09:49:38.102Z,7.85
2022-10-20T09:52:18.288Z,8.35
2022-10-20T09:54:51.001Z,10.63
2022-10-20T09:57:22.215Z,8.20
2022-10-20T09:59:53.893Z,7.07
2022-10-20T10:02:33.240Z,9.43
2022-10-20T10:05:16.326Z,10.35
2022-10-20T10:07:44.282Z,8.02
2022-10-20T10:10:27.569Z,8.07
2022-10-20T10:13:00.858Z,9.25
2022-10-20T10:15:31.677Z,8.20
2022-10-20T10:18:00.952Z,7.80
2022-10-20T10:20:39.310Z,8.45
2022-10-20T10:25:52.343Z,8.35
2022-10-20T10:28:29.864Z,7.22
2022-10-20T10:31:25.349Z,9.13
2022-10-20T10:33:58.547Z,8.13
2022-10-20T10:36:35.458Z,5.97
2022-10-20T10:39:05.071Z,6.43
2022-10-20T10:41:59.119Z,6.57
2022-10-20T10:44:40.861Z,7.78
2022-10-20T10:47:23.743Z,6.97
2022-10-20T10:50:02.333Z,7.70
2022-10-20T10:52:43.208Z,10.90
2022-10-20T10:55:43.629Z,7.63
2022-10-20T10:58:21.000Z,7.97
2022-10-20T11:01:07.307Z,7.43
2022-10-20T11:03:48.994Z,7.20
2022-10-20T11:06:28.838Z,8.30
2022-10-20T11:09:08.176Z,7.60
2022-10-20T11:11:45.223Z,8.82
2022-10-20T11:14:24.573Z,6.75
2022-10-20T11:17:04.251Z,6.85
2022-10-20T11:19:48.188Z,9.15
2022-10-20T11:22:26.852Z,9.25
2022-10-20T11:25:06.295Z,6.53
2022-10-20T11:27:37.982Z,7.35
2022-10-20T11:30:16.401Z,6.53
2022-10-20T11:35:25.357Z,7.20
2022-10-20T11:37:58.222Z,7.43
2022-10-20T11:40:31.710Z,6.63
2022-10-20T11:43:10.203Z,7.78
2022-10-20T11:45:46.036Z,6.90
2022-10-20T11:48:21.025Z,6.85
2022-10-20T11:51:07.854Z,8.00
2022-10-20T11:53:45.731Z,7.75
2022-10-20T11:56:29.287Z,6.03
2022-10-20T11:59:36.424Z,6.68
2022-10-20T12:02:29.571Z,6.80
2022-10-20T12:05:32.881Z,8.93
2022-10-20T12:08:36.167Z,7.85
2022-10-20T12:11:10.740Z,7.20
2022-10-20T12:13:47.403Z,6.35
2022-10-20T12:16:48.519Z,7.72
2022-10-20T12:19:18.727Z,9.02
2022-10-20T12:21:56.221Z,7.65
2022-10-20T12:24:35.377Z,6.78
2022-10-20T12:27:25.781Z,7.43
2022-10-20T12:29:57.844Z,7.13
2022-10-20T12:32:53.727Z,8.30
2022-10-20T12:35:31.522Z,8.50
2022-10-20T12:38:02.481Z,6.75
2022-10-20T12:40:41.572Z,8.15
2022-10-20T12:43:25.660Z,9.63
2022-10-20T12:45:59.497Z,7.85
2022-10-20T12:48:28.092Z,8.77
2022-10-20T12:51:05.615Z,10.25
2022-10-20T12:53:34.292Z,7.63
2022-10-20T12:56:08.202Z,7.50
2022-10-20T12:58:38.129Z,7.60
2022-10-20T13:01:12.350Z,8.68
2022-10-20T13:03:48.415Z,7.35
2022-10-20T13:06:43.935Z,8.48
2022-10-20T13:09:22.156Z,6.25
2022-10-20T13:12:01.791Z,8.32
2022-10-20T13:14:36.973Z,8.32
2022-10-20T13:17:20.151Z,8.35
2022-10-20T13:20:00.386Z,8.90
2022-10-20T13:22:43.115Z,7.43
2022-10-20T13:25:20.757Z,7.60
2022-10-20T13:27:51.271Z,7.10
2022-10-20T13:30:23.642Z,7.30
2022-10-20T13:33:18.250Z,8.63
2022-10-20T13:35:58.293Z,6.68
2022-10-20T13:38:33.395Z,10.18
2022-10-20T13:41:07.820Z,8.23
2022-10-20T13:43:47.954Z,8.05
2022-10-20T13:46:35.491Z,8.98
2022-10-20T13:49:19.241Z,7.65
2022-10-20T13:51:52.446Z,10.25
2022-10-20T13:54:25.350Z,8.32
2022-10-20T13:56:54.684Z,7.90
2022-10-20T13:59:25.947Z,8.77
2022-10-20T14:01:57.244Z,10.18
2022-10-20T14:04:26.865Z,7.40
2022-10-20T14:06:55.301Z,8.50
2022-10-20T14:09:25.151Z,7.88
2022-10-20T14:11:57.216Z,7.05
2022-10-20T14:14:28.422Z,7.68
2022-10-20T14:16:59.454Z,10.25
2022-10-20T14:19:28.844Z,8.95
2022-10-20T14:21:59.313Z,8.52
2022-10-20T14:24:33.990Z,11.63
2022-10-20T14:27:04.242Z,7.95
2022-10-20T14:29:36.078Z,8.30
2022-10-20T14:32:04.364Z,10.82
2022-10-20T14:34:35.965Z,6.10
2022-10-20T14:37:05.806Z,7.18
2022-10-20T14:39:39.442Z,7.40
2022-10-20T14:42:21.746Z,9.35
2022-10-20T14:44:53.024Z,7.05
2022-10-20T14:47:22.420Z,10.25
2022-10-20T14:49:52.852Z,14.77
2022-10-20T14:52:24.243Z,8.23
2022-10-20T14:54:52.648Z,5.75
2022-10-20T14:57:44.467Z,7.28
2022-10-20T15:00:29.566Z,7.00
2022-10-20T15:02:58.843Z,5.35
2022-10-20T15:05:36.213Z,10.20
2022-10-20T15:08:18.863Z,7.68
2022-10-20T15:10:46.966Z,6.38
2022-10-20T15:13:28.395Z,6.20
2022-10-20T15:15:59.078Z,6.75
2022-10-20T15:18:28.615Z,5.65
2022-10-20T15:20:57.545Z,7.15
2022-10-20T15:23:27.309Z,7.72
2022-10-20T15:25:58.837Z,6.15
2022-10-20T15:28:38.438Z,7.88
2022-10-20T15:31:19.771Z,9.60
2022-10-20T15:33:48.061Z,6.45
2022-10-20T15:36:20.675Z,7.30
2022-10-20T15:38:48.763Z,6.13
2022-10-20T15:41:18.228Z,6.35
2022-10-20T15:43:46.541Z,7.88
2022-10-20T15:46:17.066Z,9.43
2022-10-20T15:48:45.339Z,11.63
2022-10-20T15:51:17.305Z,8.65
2022-10-20T15:53:46.045Z,12.30
2022-10-20T15:56:13.925Z,11.98
2022-10-20T15:58:41.892Z,12.07
2022-10-20T16:01:12.609Z,17.10
2022-10-20T16:03:43.401Z,14.55
2022-10-20T16:06:13.439Z,15.65
2022-10-20T16:08:42.182Z,15.48
2022-10-20T16:11:11.521Z,13.50
2022-10-20T16:13:39.692Z,14.27
2022-10-20T16:16:09.508Z,14.40
2022-10-20T16:18:37.524Z,14.65
2022-10-20T16:21:07.740Z,14.37
2022-10-20T16:23:40.617Z,17.38
2022-10-20T16:26:13.223Z,17.70
2022-10-20T16:28:41.809Z,14.60
2022-10-20T16:31:11.531Z,15.52
2022-10-20T16:33:39.519Z,15.85
2022-10-20T16:36:11.466Z,13.93
2022-10-20T16:38:40.477Z,13.40
2022-10-20T16:41:10.643Z,15.90
2022-10-20T16:43:39.774Z,23.25
2022-10-20T16:46:09.100Z,16.05
2022-10-20T16:48:39.013Z,17.13
2022-10-20T16:51:11.642Z,16.15
2022-10-20T16:53:40.227Z,15.90
2022-10-20T16:56:09.124Z,39.72
2022-10-20T16:58:37.158Z,44.78
2022-10-20T17:01:08.504Z,44.43
2022-10-20T17:03:36.789Z,40.53
2022-10-20T17:06:07.028Z,55.58
2022-10-20T17:08:37.880Z,101.22
2022-10-20T17:11:08.002Z,73.47
2022-10-20T17:13:37.258Z,93.22
2022-10-20T17:16:06.710Z,78.10
2022-10-20T17:18:34.809Z,66.65
2022-10-20T17:21:03.013Z,72.90
2022-10-20T17:23:33.996Z,63.00
2022-10-20T17:26:07.266Z,58.80
2022-10-20T17:28:37.150Z,57.05
2022-10-20T17:31:07.320Z,47.10
2022-10-20T17:33:35.862Z,38.92
2022-10-20T17:36:03.844Z,43.20
2022-10-20T17:38:32.060Z,27.50
2022-10-20T17:41:05.782Z,28.98
2022-10-20T17:43:34.406Z,21.85
2022-10-20T17:46:04.604Z,20.92
2022-10-20T17:48:33.277Z,19.67
2022-10-20T17:51:02.758Z,17.30
2022-10-20T17:53:32.458Z,17.92
2022-10-20T17:56:02.343Z,21.95
2022-10-20T17:58:31.845Z,23.40
2022-10-20T18:01:08.800Z,38.10
2022-10-20T18:03:36.968Z,220.65
2022-10-20T18:06:09.494Z,180.27
2022-10-20T18:08:37.570Z,130.57
2022-10-20T18:11:09.530Z,85.60
2022-10-20T18:13:40.457Z,54.55
2022-10-20T18:16:09.262Z,31.70
2022-10-20T18:18:37.494Z,29.05
2022-10-20T18:21:06.384Z,24.73
2022-10-20T18:23:36.539Z,22.88
2022-10-20T18:26:09.285Z,19.10
2022-10-20T18:28:41.949Z,19.52
2022-10-20T18:31:17.269Z,17.42
2022-10-20T18:33:45.828Z,18.38
2022-10-20T18:36:15.838Z,18.65
2022-10-20T18:38:45.373Z,18.27
2022-10-20T18:41:15.481Z,18.77
2022-10-20T18:43:46.466Z,18.33
2022-10-20T18:46:15.846Z,20.30
2022-10-20T18:48:44.165Z,20.55
2022-10-20T18:51:13.814Z,16.30
2022-10-20T18:53:43.490Z,19.15
2022-10-20T18:56:14.805Z,20.40
2022-10-20T18:58:50.360Z,16.80
2022-10-20T19:01:21.075Z,15.57
2022-10-20T19:03:50.553Z,16.73
2022-10-20T19:06:21.932Z,12.45
2022-10-20T19:08:52.805Z,16.70
2022-10-20T19:11:21.998Z,12.90
2022-10-20T19:16:21.236Z,13.73
2022-10-20T19:18:51.577Z,16.08
2022-10-20T19:23:52.296Z,13.32
2022-10-20T19:26:22.104Z,13.77
2022-10-20T19:28:58.436Z,14.10
2022-10-20T19:31:29.615Z,14.80
2022-10-20T19:33:59.655Z,14.50
2022-10-20T19:36:29.013Z,15.30
2022-10-20T19:38:57.613Z,15.95
2022-10-20T19:41:25.655Z,14.82
2022-10-20T19:43:55.074Z,13.70
2022-10-20T19:46:23.925Z,13.73
2022-10-20T19:48:52.140Z,16.05
2022-10-20T19:51:21.113Z,18.50
2022-10-20T19:53:49.732Z,20.45
2022-10-20T19:56:18.007Z,15.43
2022-10-20T19:58:48.401Z,16.07
2022-10-20T20:01:18.006Z,15.18
2022-10-20T20:03:46.324Z,16.20
2022-10-20T20:06:17.196Z,18.48
2022-10-20T20:08:46.685Z,21.60
2022-10-20T20:11:23.679Z,14.55
2022-10-20T20:13:52.040Z,17.02
2022-10-20T20:16:21.886Z,14.53
2022-10-20T20:18:50.172Z,13.95
2022-10-20T20:21:18.757Z,22.95
2022-10-20T20:23:58.903Z,17.98
2022-10-20T20:26:28.140Z,17.88
2022-10-20T20:28:57.159Z,16.90
2022-10-20T20:31:27.993Z,13.38
2022-10-20T20:33:57.763Z,16.35
2022-10-20T20:36:27.752Z,14.70
2022-10-20T20:38:57.863Z,13.68
2022-10-20T20:41:27.632Z,17.25
2022-10-20T20:43:55.800Z,16.10
2022-10-20T20:46:29.254Z,17.58
2022-10-20T20:48:57.648Z,20.05
2022-10-20T20:51:27.121Z,15.40
2022-10-20T20:53:55.033Z,12.02
2022-10-20T20:56:24.619Z,14.23
2022-10-20T20:58:55.640Z,12.90
2022-10-20T21:03:55.792Z,16.15
2022-10-20T21:06:33.139Z,14.77
2022-10-20T21:09:02.553Z,10.95
2022-10-20T21:11:30.946Z,13.93
2022-10-20T21:13:59.905Z,11.57
2022-10-20T21:16:29.288Z,13.90
2022-10-20T21:19:00.419Z,12.82
2022-10-20T21:21:30.386Z,12.35
2022-10-20T21:23:59.238Z,12.60
2022-10-20T21:26:30.092Z,14.10
2022-10-20T21:28:58.120Z,12.88
2022-10-20T21:31:27.938Z,11.40
2022-10-20T21:33:58.979Z,11.43
2022-10-20T21:36:29.585Z,12.88
2022-10-20T21:38:57.578Z,10.68
2022-10-20T21:41:27.143Z,11.30
2022-10-20T21:43:56.492Z,11.68
2022-10-20T21:46:27.222Z,11.60
2022-10-20T21:48:58.928Z,11.52
2022-10-20T21:51:30.199Z,12.85
2022-10-20T21:53:59.863Z,10.90
2022-10-20T21:56:28.325Z,12.68
2022-10-20T21:58:56.840Z,12.27
2022-10-20T22:01:26.703Z,12.32
2022-10-20T22:03:55.273Z,13.27
2022-10-20T22:06:24.947Z,12.27
2022-10-20T22:08:56.453Z,10.88
2022-10-20T22:11:26.653Z,11.18
2022-10-20T22:13:55.247Z,16.02
2022-10-20T22:16:25.119Z,14.02
2022-10-20T22:18:56.285Z,11.93
2022-10-20T22:21:24.245Z,11.68
2022-10-20T22:23:56.047Z,13.63
2022-10-20T22:26:25.743Z,14.35
2022-10-20T22:28:54.235Z,11.30
2022-10-20T22:31:23.023Z,13.63
2022-10-20T22:33:51.687Z,13.68
2022-10-20T22:36:20.613Z,10.98
2022-10-20T22:38:48.659Z,11.10
2022-10-20T22:41:18.560Z,11.70
2022-10-20T22:43:46.583Z,12.80
2022-10-20T22:46:15.825Z,10.38
2022-10-20T22:48:44.165Z,12.88
2022-10-20T22:51:12.401Z,11.75
2022-10-20T22:53:41.308Z,12.40
2022-10-20T22:56:12.151Z,11.48
2022-10-20T22:58:42.242Z,11.18
2022-10-20T23:01:11.600Z,13.10
2022-10-20T23:03:39.981Z,9.75
2022-10-20T23:06:09.785Z,12.45
2022-10-20T23:08:41.870Z,12.80
2022-10-20T23:11:10.369Z,9.63
2022-10-20T23:13:38.346Z,10.40
2022-10-20T23:16:08.332Z,11.63
2022-10-20T23:18:36.641Z,11.77
2022-10-20T23:21:05.313Z,9.77
2022-10-20T23:23:33.509Z,11.90
2022-10-20T23:26:03.818Z,10.77
2022-10-20T23:28:33.020Z,10.70
2022-10-20T23:31:10.372Z,9.00
2022-10-20T23:33:38.801Z,8.93
2022-10-20T23:36:07.365Z,9.65
2022-10-20T23:38:35.753Z,9.48
2022-10-20T23:41:04.138Z,10.68
2022-10-20T23:43:32.416Z,9.17
2022-10-20T23:46:00.407Z,9.30
2022-10-20T23:48:29.756Z,9.70
2022-10-20T23:50:58.253Z,9.50
2022-10-20T23:53:26.238Z,10.07
2022-10-20T23:55:54.240Z,10.63
2022-10-20T23:58:23.332Z,11.60
